sensor_id;sensor_type;location;lat;lon;timestamp;P1;durP1;ratioP1;P2;durP2;ratioP2
70832;SDS011;58452;59.418;17.962;2022-08-14T00:02:14;2.88;;;1.65;;
70832;SDS011;58452;59.418;17.962;2022-08-14T00:04:39;3.38;;;2.05;;
70832;SDS011;58452;59.418;17.962;2022-08-14T00:07:05;5.03;;;2.00;;
70832;SDS011;58452;59.418;17.962;2022-08-14T00:09:30;3.92;;;2.17;;
70832;SDS011;58452;59.418;17.962;2022-08-14T00:11:56;4.93;;;1.90;;
70832;SDS011;58452;59.418;17.962;2022-08-14T00:14:22;3.78;;;1.80;;
70832;SDS011;58452;59.418;17.962;2022-08-14T00:16:49;4.32;;;2.72;;
70832;SDS011;58452;59.418;17.962;2022-08-14T00:19:16;2.97;;;1.90;;
70832;SDS011;58452;59.418;17.962;2022-08-14T00:21:42;3.85;;;1.58;;
70832;SDS011;58452;59.418;17.962;2022-08-14T00:24:07;3.00;;;1.70;;
70832;SDS011;58452;59.418;17.962;2022-08-14T00:26:33;3.83;;;1.98;;
70832;SDS011;58452;59.418;17.962;2022-08-14T00:28:58;2.28;;;2.08;;
70832;SDS011;58452;59.418;17.962;2022-08-14T00:31:24;2.63;;;2.20;;
70832;SDS011;58452;59.418;17.962;2022-08-14T00:33:49;4.43;;;2.10;;
70832;SDS011;58452;59.418;17.962;2022-08-14T00:36:15;3.45;;;2.00;;
70832;SDS011;58452;59.418;17.962;2022-08-14T00:38:41;3.13;;;1.73;;
70832;SDS011;58452;59.418;17.962;2022-08-14T00:41:07;3.17;;;2.30;;
70832;SDS011;58452;59.418;17.962;2022-08-14T00:43:33;6.50;;;2.00;;
70832;SDS011;58452;59.418;17.962;2022-08-14T00:46:01;5.75;;;2.47;;
70832;SDS011;58452;59.418;17.962;2022-08-14T00:48:30;2.20;;;1.98;;
70832;SDS011;58452;59.418;17.962;2022-08-14T00:50:55;2.83;;;2.00;;
70832;SDS011;58452;59.418;17.962;2022-08-14T00:53:21;2.00;;;1.75;;
70832;SDS011;58452;59.418;17.962;2022-08-14T00:55:47;2.95;;;2.08;;
70832;SDS011;58452;59.418;17.962;2022-08-14T00:58:14;3.95;;;2.30;;
70832;SDS011;58452;59.418;17.962;2022-08-14T01:00:56;1.80;;;1.70;;
70832;SDS011;58452;59.418;17.962;2022-08-14T01:03:35;4.97;;;2.33;;
70832;SDS011;58452;59.418;17.962;2022-08-14T01:06:04;3.75;;;1.92;;
70832;SDS011;58452;59.418;17.962;2022-08-14T01:08:32;4.90;;;1.70;;
70832;SDS011;58452;59.418;17.962;2022-08-14T01:10:59;3.80;;;2.25;;
70832;SDS011;58452;59.418;17.962;2022-08-14T01:13:26;2.40;;;2.20;;
70832;SDS011;58452;59.418;17.962;2022-08-14T01:15:56;5.10;;;2.10;;
70832;SDS011;58452;59.418;17.962;2022-08-14T01:18:31;4.78;;;2.03;;
70832;SDS011;58452;59.418;17.962;2022-08-14T01:23:50;2.58;;;2.20;;
70832;SDS011;58452;59.418;17.962;2022-08-14T01:26:18;2.17;;;1.63;;
70832;SDS011;58452;59.418;17.962;2022-08-14T01:28:47;2.42;;;2.15;;
70832;SDS011;58452;59.418;17.962;2022-08-14T01:31:19;2.60;;;2.08;;
70832;SDS011;58452;59.418;17.962;2022-08-14T01:33:48;3.90;;;1.90;;
70832;SDS011;58452;59.418;17.962;2022-08-14T01:36:16;2.13;;;1.83;;
70832;SDS011;58452;59.418;17.962;2022-08-14T01:38:44;4.15;;;2.30;;
70832;SDS011;58452;59.418;17.962;2022-08-14T01:41:13;3.90;;;1.90;;
70832;SDS011;58452;59.418;17.962;2022-08-14T01:43:46;4.30;;;2.10;;
70832;SDS011;58452;59.418;17.962;2022-08-14T01:46:20;4.53;;;2.03;;
70832;SDS011;58452;59.418;17.962;2022-08-14T01:48:47;2.40;;;2.20;;
70832;SDS011;58452;59.418;17.962;2022-08-14T01:51:14;5.47;;;1.70;;
70832;SDS011;58452;59.418;17.962;2022-08-14T01:53:42;5.95;;;1.90;;
70832;SDS011;58452;59.418;17.962;2022-08-14T01:56:12;3.20;;;1.70;;
70832;SDS011;58452;59.418;17.962;2022-08-14T01:58:44;3.40;;;2.05;;
70832;SDS011;58452;59.418;17.962;2022-08-14T02:01:14;1.90;;;1.80;;
70832;SDS011;58452;59.418;17.962;2022-08-14T02:03:44;2.38;;;1.83;;
70832;SDS011;58452;59.418;17.962;2022-08-14T02:06:10;3.53;;;1.67;;
70832;SDS011;58452;59.418;17.962;2022-08-14T02:08:37;4.28;;;1.77;;
70832;SDS011;58452;59.418;17.962;2022-08-14T02:11:05;2.05;;;1.73;;
70832;SDS011;58452;59.418;17.962;2022-08-14T02:13:43;3.53;;;2.15;;
70832;SDS011;58452;59.418;17.962;2022-08-14T02:16:10;2.85;;;1.92;;
70832;SDS011;58452;59.418;17.962;2022-08-14T02:18:36;5.03;;;2.25;;
70832;SDS011;58452;59.418;17.962;2022-08-14T02:21:02;2.42;;;1.90;;
70832;SDS011;58452;59.418;17.962;2022-08-14T02:23:29;3.42;;;1.98;;
70832;SDS011;58452;59.418;17.962;2022-08-14T02:25:56;1.90;;;1.65;;
70832;SDS011;58452;59.418;17.962;2022-08-14T02:28:24;2.67;;;1.73;;
70832;SDS011;58452;59.418;17.962;2022-08-14T02:30:50;5.30;;;2.08;;
70832;SDS011;58452;59.418;17.962;2022-08-14T02:33:15;3.30;;;1.80;;
70832;SDS011;58452;59.418;17.962;2022-08-14T02:35:41;2.65;;;1.80;;
70832;SDS011;58452;59.418;17.962;2022-08-14T02:38:07;2.97;;;1.98;;
70832;SDS011;58452;59.418;17.962;2022-08-14T02:40:33;4.25;;;1.98;;
70832;SDS011;58452;59.418;17.962;2022-08-14T02:43:00;3.42;;;2.45;;
70832;SDS011;58452;59.418;17.962;2022-08-14T02:45:26;1.95;;;1.77;;
70832;SDS011;58452;59.418;17.962;2022-08-14T02:47:58;1.67;;;1.58;;
70832;SDS011;58452;59.418;17.962;2022-08-14T02:50:28;3.13;;;1.85;;
70832;SDS011;58452;59.418;17.962;2022-08-14T02:52:53;2.10;;;1.75;;
70832;SDS011;58452;59.418;17.962;2022-08-14T02:55:19;1.83;;;1.60;;
70832;SDS011;58452;59.418;17.962;2022-08-14T02:57:45;1.90;;;1.77;;
70832;SDS011;58452;59.418;17.962;2022-08-14T03:00:15;3.00;;;2.00;;
70832;SDS011;58452;59.418;17.962;2022-08-14T03:02:41;2.08;;;1.75;;
70832;SDS011;58452;59.418;17.962;2022-08-14T03:05:07;3.05;;;1.65;;
70832;SDS011;58452;59.418;17.962;2022-08-14T03:07:32;3.17;;;1.92;;
70832;SDS011;58452;59.418;17.962;2022-08-14T03:09:58;2.35;;;1.60;;
70832;SDS011;58452;59.418;17.962;2022-08-14T03:12:24;2.05;;;1.85;;
70832;SDS011;58452;59.418;17.962;2022-08-14T03:14:50;2.72;;;1.73;;
70832;SDS011;58452;59.418;17.962;2022-08-14T03:17:16;3.35;;;1.90;;
70832;SDS011;58452;59.418;17.962;2022-08-14T03:19:42;2.53;;;1.40;;
70832;SDS011;58452;59.418;17.962;2022-08-14T03:22:08;4.30;;;1.80;;
70832;SDS011;58452;59.418;17.962;2022-08-14T03:24:33;2.55;;;2.10;;
70832;SDS011;58452;59.418;17.962;2022-08-14T03:27:01;2.35;;;2.15;;
70832;SDS011;58452;59.418;17.962;2022-08-14T03:29:27;3.15;;;2.00;;
70832;SDS011;58452;59.418;17.962;2022-08-14T03:31:53;5.00;;;2.40;;
70832;SDS011;58452;59.418;17.962;2022-08-14T03:34:20;4.32;;;1.90;;
70832;SDS011;58452;59.418;17.962;2022-08-14T03:36:48;2.33;;;2.10;;
70832;SDS011;58452;59.418;17.962;2022-08-14T03:39:22;5.13;;;2.60;;
70832;SDS011;58452;59.418;17.962;2022-08-14T03:41:49;4.55;;;2.42;;
70832;SDS011;58452;59.418;17.962;2022-08-14T03:44:16;4.00;;;2.28;;
70832;SDS011;58452;59.418;17.962;2022-08-14T03:46:42;2.22;;;2.03;;
70832;SDS011;58452;59.418;17.962;2022-08-14T03:49:08;6.28;;;2.25;;
70832;SDS011;58452;59.418;17.962;2022-08-14T03:51:34;2.58;;;2.08;;
70832;SDS011;58452;59.418;17.962;2022-08-14T03:54:02;2.58;;;1.92;;
70832;SDS011;58452;59.418;17.962;2022-08-14T03:56:32;4.57;;;2.17;;
70832;SDS011;58452;59.418;17.962;2022-08-14T03:58:58;4.07;;;2.38;;
70832;SDS011;58452;59.418;17.962;2022-08-14T04:01:27;3.38;;;2.10;;
70832;SDS011;58452;59.418;17.962;2022-08-14T04:03:54;3.40;;;2.47;;
70832;SDS011;58452;59.418;17.962;2022-08-14T04:06:31;1.65;;;1.55;;
70832;SDS011;58452;59.418;17.962;2022-08-14T04:08:57;2.13;;;1.80;;
70832;SDS011;58452;59.418;17.962;2022-08-14T04:11:23;3.92;;;2.00;;
70832;SDS011;58452;59.418;17.962;2022-08-14T04:13:48;3.47;;;2.38;;
70832;SDS011;58452;59.418;17.962;2022-08-14T04:16:15;2.55;;;1.77;;
70832;SDS011;58452;59.418;17.962;2022-08-14T04:18:45;4.80;;;2.50;;
70832;SDS011;58452;59.418;17.962;2022-08-14T04:21:14;2.15;;;1.90;;
70832;SDS011;58452;59.418;17.962;2022-08-14T04:23:40;2.30;;;2.10;;
70832;SDS011;58452;59.418;17.962;2022-08-14T04:26:07;2.30;;;2.08;;
70832;SDS011;58452;59.418;17.962;2022-08-14T04:28:38;2.50;;;1.90;;
70832;SDS011;58452;59.418;17.962;2022-08-14T04:31:04;4.82;;;1.60;;
70832;SDS011;58452;59.418;17.962;2022-08-14T04:33:31;3.05;;;2.00;;
70832;SDS011;58452;59.418;17.962;2022-08-14T04:35:57;1.80;;;1.48;;
70832;SDS011;58452;59.418;17.962;2022-08-14T04:38:23;3.03;;;2.08;;
70832;SDS011;58452;59.418;17.962;2022-08-14T04:41:08;2.35;;;2.13;;
70832;SDS011;58452;59.418;17.962;2022-08-14T04:43:52;2.45;;;2.13;;
70832;SDS011;58452;59.418;17.962;2022-08-14T04:46:18;4.70;;;1.40;;
70832;SDS011;58452;59.418;17.962;2022-08-14T04:48:46;2.70;;;2.08;;
70832;SDS011;58452;59.418;17.962;2022-08-14T04:51:13;3.42;;;1.65;;
70832;SDS011;58452;59.418;17.962;2022-08-14T04:53:41;2.53;;;1.75;;
70832;SDS011;58452;59.418;17.962;2022-08-14T04:56:08;4.65;;;2.22;;
70832;SDS011;58452;59.418;17.962;2022-08-14T04:58:36;5.18;;;2.10;;
70832;SDS011;58452;59.418;17.962;2022-08-14T05:01:04;3.35;;;1.85;;
70832;SDS011;58452;59.418;17.962;2022-08-14T05:03:32;3.83;;;1.52;;
70832;SDS011;58452;59.418;17.962;2022-08-14T05:06:00;4.50;;;2.35;;
70832;SDS011;58452;59.418;17.962;2022-08-14T05:08:28;4.07;;;2.45;;
70832;SDS011;58452;59.418;17.962;2022-08-14T05:10:55;3.72;;;1.77;;
70832;SDS011;58452;59.418;17.962;2022-08-14T05:13:24;2.53;;;1.48;;
70832;SDS011;58452;59.418;17.962;2022-08-14T05:15:52;4.38;;;2.53;;
70832;SDS011;58452;59.418;17.962;2022-08-14T05:18:23;1.65;;;1.45;;
70832;SDS011;58452;59.418;17.962;2022-08-14T05:20:51;6.13;;;1.75;;
70832;SDS011;58452;59.418;17.962;2022-08-14T05:23:20;3.10;;;1.85;;
70832;SDS011;58452;59.418;17.962;2022-08-14T05:25:48;3.22;;;1.75;;
70832;SDS011;58452;59.418;17.962;2022-08-14T05:28:16;2.22;;;1.75;;
70832;SDS011;58452;59.418;17.962;2022-08-14T05:30:45;2.63;;;1.52;;
70832;SDS011;58452;59.418;17.962;2022-08-14T05:33:16;4.93;;;1.67;;
70832;SDS011;58452;59.418;17.962;2022-08-14T05:35:43;2.78;;;1.67;;
70832;SDS011;58452;59.418;17.962;2022-08-14T05:38:10;2.42;;;1.45;;
70832;SDS011;58452;59.418;17.962;2022-08-14T05:40:38;4.93;;;1.63;;
70832;SDS011;58452;59.418;17.962;2022-08-14T05:43:04;2.83;;;1.48;;
70832;SDS011;58452;59.418;17.962;2022-08-14T05:45:30;2.78;;;1.50;;
70832;SDS011;58452;59.418;17.962;2022-08-14T05:47:57;3.42;;;1.65;;
70832;SDS011;58452;59.418;17.962;2022-08-14T05:50:22;3.63;;;1.20;;
70832;SDS011;58452;59.418;17.962;2022-08-14T05:52:48;0.93;;;0.93;;
70832;SDS011;58452;59.418;17.962;2022-08-14T05:55:14;1.63;;;1.52;;
70832;SDS011;58452;59.418;17.962;2022-08-14T05:57:46;2.33;;;1.35;;
70832;SDS011;58452;59.418;17.962;2022-08-14T06:00:16;3.70;;;1.33;;
70832;SDS011;58452;59.418;17.962;2022-08-14T06:02:42;6.15;;;2.50;;
70832;SDS011;58452;59.418;17.962;2022-08-14T06:05:08;3.00;;;1.40;;
70832;SDS011;58452;59.418;17.962;2022-08-14T06:07:36;1.92;;;1.40;;
70832;SDS011;58452;59.418;17.962;2022-08-14T06:10:03;4.07;;;1.27;;
70832;SDS011;58452;59.418;17.962;2022-08-14T06:12:30;4.50;;;1.10;;
70832;SDS011;58452;59.418;17.962;2022-08-14T06:14:55;2.95;;;1.30;;
70832;SDS011;58452;59.418;17.962;2022-08-14T06:17:21;2.40;;;1.15;;
70832;SDS011;58452;59.418;17.962;2022-08-14T06:19:46;1.60;;;1.35;;
70832;SDS011;58452;59.418;17.962;2022-08-14T06:22:12;3.53;;;1.30;;
70832;SDS011;58452;59.418;17.962;2022-08-14T06:24:37;5.50;;;1.38;;
70832;SDS011;58452;59.418;17.962;2022-08-14T06:27:03;2.70;;;1.08;;
70832;SDS011;58452;59.418;17.962;2022-08-14T06:29:29;2.55;;;1.67;;
70832;SDS011;58452;59.418;17.962;2022-08-14T06:31:54;3.25;;;1.27;;
70832;SDS011;58452;59.418;17.962;2022-08-14T06:34:19;2.95;;;1.40;;
70832;SDS011;58452;59.418;17.962;2022-08-14T06:36:45;1.42;;;1.25;;
70832;SDS011;58452;59.418;17.962;2022-08-14T06:39:10;1.77;;;1.10;;
70832;SDS011;58452;59.418;17.962;2022-08-14T06:41:36;4.10;;;1.52;;
70832;SDS011;58452;59.418;17.962;2022-08-14T06:44:02;1.88;;;1.33;;
70832;SDS011;58452;59.418;17.962;2022-08-14T06:46:28;1.90;;;1.30;;
70832;SDS011;58452;59.418;17.962;2022-08-14T06:48:54;5.72;;;1.63;;
70832;SDS011;58452;59.418;17.962;2022-08-14T06:51:19;3.10;;;1.35;;
70832;SDS011;58452;59.418;17.962;2022-08-14T06:53:45;2.20;;;0.93;;
70832;SDS011;58452;59.418;17.962;2022-08-14T06:56:12;3.28;;;0.98;;
70832;SDS011;58452;59.418;17.962;2022-08-14T06:58:37;2.50;;;1.42;;
70832;SDS011;58452;59.418;17.962;2022-08-14T07:01:03;2.58;;;1.10;;
70832;SDS011;58452;59.418;17.962;2022-08-14T07:03:47;5.03;;;1.40;;
70832;SDS011;58452;59.418;17.962;2022-08-14T07:06:31;2.63;;;0.90;;
70832;SDS011;58452;59.418;17.962;2022-08-14T07:08:56;2.63;;;0.90;;
70832;SDS011;58452;59.418;17.962;2022-08-14T07:11:22;2.00;;;1.08;;
70832;SDS011;58452;59.418;17.962;2022-08-14T07:13:47;3.38;;;1.30;;
70832;SDS011;58452;59.418;17.962;2022-08-14T07:16:12;1.60;;;1.35;;
70832;SDS011;58452;59.418;17.962;2022-08-14T07:18:38;1.88;;;1.10;;
70832;SDS011;58452;59.418;17.962;2022-08-14T07:21:06;2.92;;;1.50;;
70832;SDS011;58452;59.418;17.962;2022-08-14T07:23:33;1.58;;;1.42;;
70832;SDS011;58452;59.418;17.962;2022-08-14T07:26:00;2.05;;;1.00;;
70832;SDS011;58452;59.418;17.962;2022-08-14T07:28:28;3.08;;;1.40;;
70832;SDS011;58452;59.418;17.962;2022-08-14T07:30:56;2.20;;;1.27;;
70832;SDS011;58452;59.418;17.962;2022-08-14T07:33:27;3.00;;;1.15;;
70832;SDS011;58452;59.418;17.962;2022-08-14T07:35:55;1.77;;;1.27;;
70832;SDS011;58452;59.418;17.962;2022-08-14T07:38:22;3.03;;;1.42;;
70832;SDS011;58452;59.418;17.962;2022-08-14T07:40:49;2.38;;;0.80;;
70832;SDS011;58452;59.418;17.962;2022-08-14T07:43:15;1.80;;;1.13;;
70832;SDS011;58452;59.418;17.962;2022-08-14T07:45:42;2.85;;;1.25;;
70832;SDS011;58452;59.418;17.962;2022-08-14T07:48:08;3.13;;;1.20;;
70832;SDS011;58452;59.418;17.962;2022-08-14T07:50:33;2.65;;;1.13;;
70832;SDS011;58452;59.418;17.962;2022-08-14T07:53:00;2.45;;;1.13;;
70832;SDS011;58452;59.418;17.962;2022-08-14T07:55:26;5.32;;;1.42;;
70832;SDS011;58452;59.418;17.962;2022-08-14T07:57:52;1.67;;;1.38;;
70832;SDS011;58452;59.418;17.962;2022-08-14T08:00:19;3.90;;;1.25;;
70832;SDS011;58452;59.418;17.962;2022-08-14T08:02:47;3.50;;;1.10;;
70832;SDS011;58452;59.418;17.962;2022-08-14T08:05:16;1.63;;;1.02;;
70832;SDS011;58452;59.418;17.962;2022-08-14T08:07:43;2.80;;;1.40;;
70832;SDS011;58452;59.418;17.962;2022-08-14T08:10:10;3.05;;;1.20;;
70832;SDS011;58452;59.418;17.962;2022-08-14T08:15:37;1.88;;;1.00;;
70832;SDS011;58452;59.418;17.962;2022-08-14T08:18:08;3.58;;;1.25;;
70832;SDS011;58452;59.418;17.962;2022-08-14T08:20:36;3.10;;;1.10;;
70832;SDS011;58452;59.418;17.962;2022-08-14T08:23:05;1.98;;;1.40;;
70832;SDS011;58452;59.418;17.962;2022-08-14T08:25:36;2.30;;;1.02;;
70832;SDS011;58452;59.418;17.962;2022-08-14T08:28:03;2.17;;;1.02;;
70832;SDS011;58452;59.418;17.962;2022-08-14T08:30:32;1.85;;;1.10;;
70832;SDS011;58452;59.418;17.962;2022-08-14T08:32:59;3.22;;;1.10;;
70832;SDS011;58452;59.418;17.962;2022-08-14T08:35:27;2.97;;;0.90;;
70832;SDS011;58452;59.418;17.962;2022-08-14T08:37:59;2.40;;;1.63;;
70832;SDS011;58452;59.418;17.962;2022-08-14T08:40:28;2.15;;;1.05;;
70832;SDS011;58452;59.418;17.962;2022-08-14T08:42:59;1.60;;;1.10;;
70832;SDS011;58452;59.418;17.962;2022-08-14T08:45:25;9.77;;;1.45;;
70832;SDS011;58452;59.418;17.962;2022-08-14T08:47:50;1.25;;;0.90;;
70832;SDS011;58452;59.418;17.962;2022-08-14T08:50:23;1.70;;;1.10;;
70832;SDS011;58452;59.418;17.962;2022-08-14T08:52:54;3.33;;;1.15;;
70832;SDS011;58452;59.418;17.962;2022-08-14T08:55:25;5.30;;;1.17;;
70832;SDS011;58452;59.418;17.962;2022-08-14T08:57:54;2.15;;;1.30;;
70832;SDS011;58452;59.418;17.962;2022-08-14T09:00:25;3.88;;;1.30;;
70832;SDS011;58452;59.418;17.962;2022-08-14T09:02:58;4.03;;;1.23;;
70832;SDS011;58452;59.418;17.962;2022-08-14T09:05:29;3.92;;;1.20;;
70832;SDS011;58452;59.418;17.962;2022-08-14T09:08:15;3.08;;;1.05;;
70832;SDS011;58452;59.418;17.962;2022-08-14T09:10:45;3.72;;;1.35;;
70832;SDS011;58452;59.418;17.962;2022-08-14T09:13:12;4.70;;;1.80;;
70832;SDS011;58452;59.418;17.962;2022-08-14T09:15:40;3.78;;;1.20;;
70832;SDS011;58452;59.418;17.962;2022-08-14T09:18:07;1.15;;;0.73;;
70832;SDS011;58452;59.418;17.962;2022-08-14T09:20:34;2.55;;;1.00;;
70832;SDS011;58452;59.418;17.962;2022-08-14T09:23:02;1.50;;;1.10;;
70832;SDS011;58452;59.418;17.962;2022-08-14T09:25:28;6.28;;;1.30;;
70832;SDS011;58452;59.418;17.962;2022-08-14T09:27:54;3.50;;;1.10;;
70832;SDS011;58452;59.418;17.962;2022-08-14T09:30:19;2.20;;;1.08;;
70832;SDS011;58452;59.418;17.962;2022-08-14T09:32:52;2.90;;;1.02;;
70832;SDS011;58452;59.418;17.962;2022-08-14T09:38:10;1.27;;;1.17;;
70832;SDS011;58452;59.418;17.962;2022-08-14T09:43:42;2.65;;;1.13;;
70832;SDS011;58452;59.418;17.962;2022-08-14T09:46:17;1.33;;;0.90;;
70832;SDS011;58452;59.418;17.962;2022-08-14T09:48:43;3.78;;;0.75;;
70832;SDS011;58452;59.418;17.962;2022-08-14T09:51:17;3.25;;;1.25;;
70832;SDS011;58452;59.418;17.962;2022-08-14T09:53:47;1.50;;;0.70;;
70832;SDS011;58452;59.418;17.962;2022-08-14T09:56:25;3.78;;;1.10;;
70832;SDS011;58452;59.418;17.962;2022-08-14T09:58:50;2.67;;;1.20;;
70832;SDS011;58452;59.418;17.962;2022-08-14T10:01:19;1.70;;;1.15;;
70832;SDS011;58452;59.418;17.962;2022-08-14T10:03:52;5.70;;;1.10;;
70832;SDS011;58452;59.418;17.962;2022-08-14T10:06:24;0.90;;;0.85;;
70832;SDS011;58452;59.418;17.962;2022-08-14T10:08:58;2.90;;;1.13;;
70832;SDS011;58452;59.418;17.962;2022-08-14T10:11:30;4.90;;;1.00;;
70832;SDS011;58452;59.418;17.962;2022-08-14T10:14:12;2.97;;;1.02;;
70832;SDS011;58452;59.418;17.962;2022-08-14T10:16:43;4.57;;;1.55;;
70832;SDS011;58452;59.418;17.962;2022-08-14T10:19:11;2.95;;;1.10;;
70832;SDS011;58452;59.418;17.962;2022-08-14T10:21:39;3.03;;;1.38;;
70832;SDS011;58452;59.418;17.962;2022-08-14T10:24:10;2.38;;;1.05;;
70832;SDS011;58452;59.418;17.962;2022-08-14T10:26:37;7.90;;;1.20;;
70832;SDS011;58452;59.418;17.962;2022-08-14T10:29:09;3.08;;;0.90;;
70832;SDS011;58452;59.418;17.962;2022-08-14T10:31:37;5.88;;;1.42;;
70832;SDS011;58452;59.418;17.962;2022-08-14T10:34:06;5.03;;;1.00;;
70832;SDS011;58452;59.418;17.962;2022-08-14T10:36:35;1.02;;;0.88;;
70832;SDS011;58452;59.418;17.962;2022-08-14T10:39:06;4.43;;;1.00;;
70832;SDS011;58452;59.418;17.962;2022-08-14T10:41:37;2.00;;;0.80;;
70832;SDS011;58452;59.418;17.962;2022-08-14T10:46:43;3.72;;;1.02;;
70832;SDS011;58452;59.418;17.962;2022-08-14T10:49:16;1.95;;;0.85;;
70832;SDS011;58452;59.418;17.962;2022-08-14T10:54:44;3.47;;;1.30;;
70832;SDS011;58452;59.418;17.962;2022-08-14T10:59:48;2.15;;;1.10;;
70832;SDS011;58452;59.418;17.962;2022-08-14T11:02:33;1.38;;;0.95;;
70832;SDS011;58452;59.418;17.962;2022-08-14T11:07:26;0.98;;;0.88;;
70832;SDS011;58452;59.418;17.962;2022-08-14T11:09:53;2.97;;;0.82;;
70832;SDS011;58452;59.418;17.962;2022-08-14T11:12:37;1.40;;;1.10;;
70832;SDS011;58452;59.418;17.962;2022-08-14T11:15:14;3.20;;;1.10;;
70832;SDS011;58452;59.418;17.962;2022-08-14T11:18:01;1.30;;;1.00;;
70832;SDS011;58452;59.418;17.962;2022-08-14T11:20:28;3.58;;;0.90;;
70832;SDS011;58452;59.418;17.962;2022-08-14T11:22:56;3.08;;;1.20;;
70832;SDS011;58452;59.418;17.962;2022-08-14T11:25:25;5.88;;;1.15;;
70832;SDS011;58452;59.418;17.962;2022-08-14T11:27:54;4.32;;;0.95;;
70832;SDS011;58452;59.418;17.962;2022-08-14T11:30:23;4.95;;;0.93;;
70832;SDS011;58452;59.418;17.962;2022-08-14T11:32:51;2.42;;;1.00;;
70832;SDS011;58452;59.418;17.962;2022-08-14T11:35:25;1.52;;;1.20;;
70832;SDS011;58452;59.418;17.962;2022-08-14T11:37:53;2.17;;;0.80;;
70832;SDS011;58452;59.418;17.962;2022-08-14T11:40:19;2.28;;;0.95;;
70832;SDS011;58452;59.418;17.962;2022-08-14T11:42:47;2.70;;;1.10;;
70832;SDS011;58452;59.418;17.962;2022-08-14T11:45:14;2.08;;;0.80;;
70832;SDS011;58452;59.418;17.962;2022-08-14T11:47:40;3.20;;;0.90;;
70832;SDS011;58452;59.418;17.962;2022-08-14T11:50:19;1.00;;;0.90;;
70832;SDS011;58452;59.418;17.962;2022-08-14T11:52:48;0.57;;;0.52;;
70832;SDS011;58452;59.418;17.962;2022-08-14T11:55:15;0.65;;;0.60;;
70832;SDS011;58452;59.418;17.962;2022-08-14T11:57:41;1.65;;;0.65;;
70832;SDS011;58452;59.418;17.962;2022-08-14T12:00:09;2.97;;;0.73;;
70832;SDS011;58452;59.418;17.962;2022-08-14T12:02:48;0.73;;;0.43;;
70832;SDS011;58452;59.418;17.962;2022-08-14T12:05:27;1.17;;;0.70;;
70832;SDS011;58452;59.418;17.962;2022-08-14T12:07:56;0.93;;;0.55;;
70832;SDS011;58452;59.418;17.962;2022-08-14T12:10:23;3.17;;;1.23;;
70832;SDS011;58452;59.418;17.962;2022-08-14T12:12:49;0.90;;;0.68;;
70832;SDS011;58452;59.418;17.962;2022-08-14T12:15:27;0.63;;;0.63;;
70832;SDS011;58452;59.418;17.962;2022-08-14T12:17:57;0.98;;;0.60;;
70832;SDS011;58452;59.418;17.962;2022-08-14T12:20:32;1.80;;;0.90;;
70832;SDS011;58452;59.418;17.962;2022-08-14T12:23:00;1.13;;;0.60;;
70832;SDS011;58452;59.418;17.962;2022-08-14T12:25:28;4.40;;;0.88;;
70832;SDS011;58452;59.418;17.962;2022-08-14T12:27:54;0.90;;;0.65;;
70832;SDS011;58452;59.418;17.962;2022-08-14T12:30:33;0.90;;;0.75;;
70832;SDS011;58452;59.418;17.962;2022-08-14T12:33:02;0.63;;;0.50;;
70832;SDS011;58452;59.418;17.962;2022-08-14T12:35:38;1.30;;;0.70;;
70832;SDS011;58452;59.418;17.962;2022-08-14T12:38:06;2.83;;;0.98;;
70832;SDS011;58452;59.418;17.962;2022-08-14T12:40:43;1.77;;;0.73;;
70832;SDS011;58452;59.418;17.962;2022-08-14T12:43:18;0.63;;;0.60;;
70832;SDS011;58452;59.418;17.962;2022-08-14T12:45:48;0.85;;;0.50;;
70832;SDS011;58452;59.418;17.962;2022-08-14T12:48:16;1.33;;;0.60;;
70832;SDS011;58452;59.418;17.962;2022-08-14T12:50:43;1.27;;;0.75;;
70832;SDS011;58452;59.418;17.962;2022-08-14T12:53:10;2.72;;;0.82;;
70832;SDS011;58452;59.418;17.962;2022-08-14T12:55:37;3.30;;;0.70;;
70832;SDS011;58452;59.418;17.962;2022-08-14T12:58:04;2.65;;;0.38;;
70832;SDS011;58452;59.418;17.962;2022-08-14T13:00:32;0.95;;;0.70;;
70832;SDS011;58452;59.418;17.962;2022-08-14T13:02:59;1.60;;;0.60;;
70832;SDS011;58452;59.418;17.962;2022-08-14T13:05:27;0.50;;;0.50;;
70832;SDS011;58452;59.418;17.962;2022-08-14T13:07:56;1.38;;;0.60;;
70832;SDS011;58452;59.418;17.962;2022-08-14T13:10:23;2.47;;;0.68;;
70832;SDS011;58452;59.418;17.962;2022-08-14T13:12:50;2.72;;;0.90;;
70832;SDS011;58452;59.418;17.962;2022-08-14T13:15:19;1.40;;;0.88;;
70832;SDS011;58452;59.418;17.962;2022-08-14T13:17:48;3.28;;;0.70;;
70832;SDS011;58452;59.418;17.962;2022-08-14T13:20:16;2.15;;;0.80;;
70832;SDS011;58452;59.418;17.962;2022-08-14T13:22:44;0.93;;;0.60;;
70832;SDS011;58452;59.418;17.962;2022-08-14T13:25:27;1.27;;;0.70;;
70832;SDS011;58452;59.418;17.962;2022-08-14T13:27:54;3.77;;;0.57;;
70832;SDS011;58452;59.418;17.962;2022-08-14T13:30:23;3.13;;;0.77;;
70832;SDS011;58452;59.418;17.962;2022-08-14T13:32:50;3.28;;;0.70;;
70832;SDS011;58452;59.418;17.962;2022-08-14T13:35:17;2.50;;;0.70;;
70832;SDS011;58452;59.418;17.962;2022-08-14T13:37:43;1.75;;;0.70;;
70832;SDS011;58452;59.418;17.962;2022-08-14T13:40:12;2.15;;;0.90;;
70832;SDS011;58452;59.418;17.962;2022-08-14T13:42:41;3.50;;;1.10;;
70832;SDS011;58452;59.418;17.962;2022-08-14T13:45:09;4.53;;;1.02;;
70832;SDS011;58452;59.418;17.962;2022-08-14T13:47:37;1.30;;;1.20;;
70832;SDS011;58452;59.418;17.962;2022-08-14T13:50:04;3.33;;;1.10;;
70832;SDS011;58452;59.418;17.962;2022-08-14T13:52:33;3.92;;;0.85;;
70832;SDS011;58452;59.418;17.962;2022-08-14T13:55:04;2.92;;;1.15;;
70832;SDS011;58452;59.418;17.962;2022-08-14T13:57:31;2.58;;;1.20;;
70832;SDS011;58452;59.418;17.962;2022-08-14T14:00:00;3.65;;;1.13;;
70832;SDS011;58452;59.418;17.962;2022-08-14T14:02:30;4.68;;;1.15;;
70832;SDS011;58452;59.418;17.962;2022-08-14T14:04:59;3.30;;;0.90;;
70832;SDS011;58452;59.418;17.962;2022-08-14T14:07:27;3.40;;;1.20;;
70832;SDS011;58452;59.418;17.962;2022-08-14T14:09:52;3.65;;;1.42;;
70832;SDS011;58452;59.418;17.962;2022-08-14T14:12:21;4.65;;;1.58;;
70832;SDS011;58452;59.418;17.962;2022-08-14T14:14:48;5.70;;;1.40;;
70832;SDS011;58452;59.418;17.962;2022-08-14T14:17:15;4.68;;;1.38;;
70832;SDS011;58452;59.418;17.962;2022-08-14T14:19:41;9.73;;;1.75;;
70832;SDS011;58452;59.418;17.962;2022-08-14T14:22:11;5.00;;;1.30;;
70832;SDS011;58452;59.418;17.962;2022-08-14T14:24:39;10.80;;;1.80;;
70832;SDS011;58452;59.418;17.962;2022-08-14T14:27:04;9.25;;;1.98;;
70832;SDS011;58452;59.418;17.962;2022-08-14T14:29:30;8.77;;;1.30;;
70832;SDS011;58452;59.418;17.962;2022-08-14T14:31:57;5.47;;;1.65;;
70832;SDS011;58452;59.418;17.962;2022-08-14T14:34:25;3.90;;;1.45;;
70832;SDS011;58452;59.418;17.962;2022-08-14T14:36:52;3.92;;;1.00;;
70832;SDS011;58452;59.418;17.962;2022-08-14T14:39:22;5.43;;;1.60;;
70832;SDS011;58452;59.418;17.962;2022-08-14T14:41:52;4.10;;;1.20;;
70832;SDS011;58452;59.418;17.962;2022-08-14T14:44:24;6.50;;;1.75;;
70832;SDS011;58452;59.418;17.962;2022-08-14T14:46:56;4.90;;;1.52;;
70832;SDS011;58452;59.418;17.962;2022-08-14T14:49:22;7.50;;;1.95;;
70832;SDS011;58452;59.418;17.962;2022-08-14T14:51:49;4.90;;;2.03;;
70832;SDS011;58452;59.418;17.962;2022-08-14T14:54:16;5.95;;;1.10;;
70832;SDS011;58452;59.418;17.962;2022-08-14T14:56:43;5.40;;;1.70;;
70832;SDS011;58452;59.418;17.962;2022-08-14T14:59:12;6.55;;;1.90;;
70832;SDS011;58452;59.418;17.962;2022-08-14T15:01:41;7.03;;;1.58;;
70832;SDS011;58452;59.418;17.962;2022-08-14T15:04:11;3.20;;;1.20;;